Time;durP1;ratioP1;P1;durP2;ratioP2;P2;SDS_P1;SDS_P2;PMS_P1;PMS_P2;Temp;Humidity;BMP_temperature;BMP_pressure;BME280_temperature;BME280_humidity;BME280_pressure;Samples;Min_cycle;Max_cycle;Signal;HPM_P1;HPM_P2
2022/07/21 00:00:21;;;;;;;13.55;8.77;;;18.80;99.90;;;-144.05;87.69;125687.94;6102052;23;20010;-87
2022/07/21 00:02:47;;;;;;;10.73;8.52;;;18.80;99.90;;;-144.05;87.71;125687.94;6125449;23;20026;-87
2022/07/21 00:05:15;;;;;;;10.45;8.15;;;18.70;99.90;;;-144.05;88.08;125687.94;6102167;23;20348;-87
2022/07/21 00:07:41;;;;;;;10.98;8.75;;;18.70;99.90;;;-144.05;88.83;125687.94;6126677;23;20020;-89
2022/07/21 00:10:08;;;;;;;12.73;9.65;;;18.80;99.90;;;-144.05;89.63;125687.94;6126477;23;20013;-86
2022/07/21 00:12:34;;;;;;;10.98;8.32;;;18.80;99.90;;;-144.05;89.60;125687.94;6128251;23;20006;-87
2022/07/21 00:15:02;;;;;;;10.27;8.13;;;18.90;99.90;;;-144.05;89.53;125687.94;6126672;23;20006;-88
2022/07/21 00:17:28;;;;;;;8.40;7.50;;;18.90;99.90;;;-144.05;89.91;125687.94;6127670;23;20116;-88
2022/07/21 00:19:54;;;;;;;12.48;10.68;;;18.90;99.90;;;-144.05;90.05;125687.94;6127742;23;20472;-88
2022/07/21 00:22:20;;;;;;;12.68;8.82;;;18.90;99.90;;;-144.05;90.12;125687.94;6126308;23;20040;-87
2022/07/21 00:24:46;;;;;;;12.07;10.88;;;18.90;99.90;;;-144.05;90.01;125687.94;6126936;23;20466;-88
2022/07/21 00:27:12;;;;;;;17.27;11.98;;;18.90;99.90;;;-144.05;90.68;125687.94;6126832;23;20089;-88
2022/07/21 00:29:38;;;;;;;16.17;12.88;;;18.90;99.90;;;-144.05;90.87;125687.94;6127265;23;20006;-87
2022/07/21 00:32:05;;;;;;;15.00;11.50;;;18.80;99.90;;;-144.05;90.67;125687.94;6128649;23;20017;-89
2022/07/21 00:34:33;;;;;;;17.42;13.95;;;18.80;99.90;;;-144.05;90.30;125687.94;6127975;23;20002;-89
2022/07/21 00:36:59;;;;;;;17.83;13.63;;;18.80;99.90;;;-144.05;90.44;125687.94;6127353;23;20065;-89
2022/07/21 00:39:25;;;;;;;18.00;12.38;;;18.70;99.90;;;-144.05;90.49;125687.94;6103097;23;20006;-86
2022/07/21 00:41:52;;;;;;;17.15;12.05;;;18.80;99.90;;;-144.05;90.34;125687.94;6106978;23;20009;-86
2022/07/21 00:44:27;;;;;;;14.60;11.77;;;18.80;99.90;;;-144.05;90.57;125687.94;6132688;23;20010;-86
2022/07/21 00:46:55;;;;;;;17.40;13.85;;;18.80;99.90;;;-144.05;90.50;125687.94;6127350;23;20041;-86
2022/07/21 00:49:22;;;;;;;14.82;12.18;;;18.80;99.90;;;-144.05;90.69;125687.94;6126822;23;20037;-87
2022/07/21 00:51:49;;;;;;;15.60;11.30;;;18.80;99.90;;;-144.05;90.49;125687.94;6128820;23;20006;-89
2022/07/21 00:54:18;;;;;;;18.30;13.32;;;18.70;99.90;;;-144.05;90.74;125687.94;6127848;23;20006;-86
2022/07/21 00:56:47;;;;;;;17.08;12.68;;;18.70;99.90;;;-144.05;90.92;125687.94;6130106;23;20010;-89
2022/07/21 00:59:16;;;;;;;13.65;11.50;;;18.80;99.90;;;-144.05;91.18;125687.94;6130783;23;20336;-88
2022/07/21 01:01:42;;;;;;;19.40;13.50;;;18.80;99.90;;;-144.05;91.17;125687.94;6128419;23;20016;-85
2022/07/21 01:04:08;;;;;;;18.70;14.15;;;18.80;99.90;;;-144.05;91.46;125687.94;6130445;23;20010;-85
2022/07/21 01:06:34;;;;;;;17.42;13.95;;;18.80;99.90;;;-144.05;91.94;125687.94;6104408;23;20519;-86
2022/07/21 01:09:00;;;;;;;20.02;15.02;;;18.90;99.90;;;-144.05;92.06;125687.94;6103579;23;20060;-86
2022/07/21 01:11:27;;;;;;;22.42;16.23;;;18.90;99.90;;;-144.05;91.55;125687.94;6104596;23;20096;-85
2022/07/21 01:13:54;;;;;;;19.98;16.42;;;18.80;99.90;;;-144.05;91.62;125687.94;6128507;23;20025;-87
2022/07/21 01:16:20;;;;;;;20.42;16.15;;;18.70;99.90;;;-144.05;91.87;125687.94;6128544;23;20006;-86
2022/07/21 01:18:46;;;;;;;21.38;17.20;;;18.70;99.90;;;-144.05;91.80;125687.94;6128265;23;20010;-85
2022/07/21 01:21:36;;;;;;;20.60;17.73;;;18.70;99.90;;;-144.05;92.26;125687.94;6103748;23;20159;-86
2022/07/21 01:24:04;;;;;;;22.00;16.92;;;18.70;99.90;;;-144.05;92.14;125687.94;6127886;23;20033;-89
2022/07/21 01:26:52;;;;;;;22.25;16.70;;;18.70;99.90;;;-144.05;91.91;125687.94;6127534;23;20010;-85
2022/07/21 01:29:20;;;;;;;16.52;14.55;;;18.70;99.90;;;-144.05;91.75;125687.94;6103080;23;20006;-85
2022/07/21 01:31:49;;;;;;;16.95;13.60;;;18.70;99.90;;;-144.05;91.65;125687.94;6129404;23;20337;-87
2022/07/21 01:34:17;;;;;;;16.23;13.75;;;18.60;99.90;;;-144.05;91.92;125687.94;6127928;23;20018;-87
2022/07/21 01:36:44;;;;;;;17.10;12.10;;;18.70;99.90;;;-144.05;91.73;125687.94;6131056;23;20012;-86
2022/07/21 01:41:55;;;;;;;16.35;11.68;;;18.60;99.90;;;-144.05;92.02;125687.94;6131954;23;20033;-84
2022/07/21 01:44:21;;;;;;;13.73;10.65;;;18.60;99.90;;;-144.05;91.45;125687.94;6104046;23;20052;-86
2022/07/21 01:46:51;;;;;;;12.65;10.02;;;18.60;99.90;;;-144.05;91.84;125687.94;6131423;23;20448;-85
2022/07/21 01:49:20;;;;;;;16.52;10.80;;;18.60;99.90;;;-144.05;91.52;125687.94;6141023;23;20036;-84
2022/07/21 01:51:47;;;;;;;13.50;9.88;;;18.40;99.90;;;-144.05;91.48;125687.94;6152738;23;20010;-84
2022/07/21 01:54:14;;;;;;;13.88;10.40;;;18.40;99.90;;;-144.05;91.23;125687.94;6149436;23;20010;-86
2022/07/21 01:56:40;;;;;;;18.23;12.35;;;18.30;99.90;;;-144.05;91.53;125687.94;6142318;23;20432;-86
2022/07/21 01:59:07;;;;;;;16.25;12.88;;;18.30;99.90;;;-144.05;91.84;125687.94;6143906;23;20018;-88
2022/07/21 02:01:34;;;;;;;18.02;12.63;;;18.30;99.90;;;-144.05;92.44;125687.94;6106928;23;20045;-89
2022/07/21 02:04:04;;;;;;;18.05;13.88;;;18.30;99.90;;;-144.05;92.77;125687.94;6129107;23;20010;-88
2022/07/21 02:06:32;;;;;;;21.15;14.27;;;18.30;99.90;;;-144.05;93.48;125687.94;6127331;23;20436;-89
2022/07/21 02:08:58;;;;;;;18.00;13.88;;;18.30;99.90;;;-144.05;93.27;125687.94;6127788;23;20009;-86
2022/07/21 02:11:24;;;;;;;19.88;14.30;;;18.30;99.90;;;-144.05;93.12;125687.94;6103462;23;20010;-87
2022/07/21 02:13:50;;;;;;;17.00;14.18;;;18.30;99.90;;;-144.05;93.20;125687.94;6103088;23;20373;-88
2022/07/21 02:16:15;;;;;;;19.98;14.85;;;18.30;99.90;;;-144.05;94.09;125687.94;6103639;23;20065;-86
2022/07/21 02:18:43;;;;;;;19.70;13.52;;;18.20;99.90;;;-144.05;93.53;125687.94;6129532;23;20002;-86
2022/07/21 02:21:09;;;;;;;19.17;14.57;;;18.30;99.90;;;-144.05;94.29;125687.94;6103866;23;20002;-88
2022/07/21 02:23:35;;;;;;;18.48;12.98;;;18.20;99.90;;;-144.05;94.11;125687.94;6104258;23;20017;-89
2022/07/21 02:26:02;;;;;;;17.40;11.80;;;18.20;99.90;;;-144.05;93.35;125687.94;6130761;23;20013;-88
2022/07/21 02:28:28;;;;;;;15.25;11.38;;;18.20;99.90;;;-144.05;93.49;125687.94;6128359;23;20416;-88
2022/07/21 02:30:55;;;;;;;16.13;10.70;;;18.10;99.90;;;-144.05;93.39;125687.94;6135873;23;20313;-87
2022/07/21 02:33:21;;;;;;;14.63;9.45;;;18.00;99.90;;;-144.05;92.94;125687.94;6111316;23;20010;-88
2022/07/21 02:35:48;;;;;;;13.73;8.70;;;18.00;99.90;;;-144.05;93.13;125687.94;6129176;23;20033;-89
2022/07/21 02:38:14;;;;;;;10.40;7.00;;;17.90;99.90;;;-144.05;92.92;125687.94;6128030;23;20036;-88
2022/07/21 02:40:40;;;;;;;11.55;7.45;;;17.80;99.90;;;-144.05;92.91;125687.94;6126973;23;20428;-88
2022/07/21 02:43:08;;;;;;;9.43;6.63;;;17.70;99.90;;;-144.05;92.80;125687.94;6126922;23;20009;-89
2022/07/21 02:45:36;;;;;;;8.90;6.80;;;17.60;99.90;;;-144.05;92.42;125687.94;6127163;23;20060;-89
2022/07/21 02:48:09;;;;;;;10.63;7.10;;;17.50;99.90;;;-144.05;92.38;125687.94;6126936;23;20096;-87
2022/07/21 02:50:41;;;;;;;10.50;6.38;;;17.50;99.90;;;-144.05;92.71;125687.94;6129429;23;20076;-90
2022/07/21 02:53:17;;;;;;;10.40;6.70;;;17.50;99.90;;;-144.05;92.71;125687.94;6128492;23;20056;-88
2022/07/21 02:55:45;;;;;;;9.02;6.18;;;17.50;99.90;;;-144.05;92.69;125687.94;6103355;23;20010;-89
2022/07/21 02:58:18;;;;;;;12.52;6.75;;;17.50;99.90;;;-144.05;92.76;125687.94;6127013;23;20168;-91
2022/07/21 03:00:52;;;;;;;9.93;7.18;;;17.40;99.90;;;-144.05;92.69;125687.94;6127567;23;20009;-89
2022/07/21 03:03:20;;;;;;;14.07;7.13;;;17.40;99.90;;;-144.05;93.42;125687.94;6102616;23;20017;-90
2022/07/21 03:05:47;;;;;;;8.65;6.35;;;17.30;99.90;;;-144.05;93.80;125687.94;6127405;23;20065;-88
2022/07/21 03:08:14;;;;;;;10.00;7.00;;;17.30;99.90;;;-144.05;93.76;125687.94;6126945;23;20065;-89
2022/07/21 03:10:41;;;;;;;10.45;7.20;;;17.30;99.90;;;-144.05;93.79;125687.94;6127559;23;20009;-89
2022/07/21 03:13:08;;;;;;;11.00;7.72;;;17.40;99.90;;;-144.05;94.01;125687.94;6128397;23;20010;-89
2022/07/21 03:15:36;;;;;;;12.07;8.00;;;17.30;99.90;;;-144.05;93.67;125687.94;6130210;23;20044;-89
2022/07/21 03:18:04;;;;;;;11.63;8.23;;;17.40;99.90;;;-144.05;93.81;125687.94;6127481;23;20013;-87
2022/07/21 03:20:36;;;;;;;9.48;7.40;;;17.40;99.90;;;-144.05;93.91;125687.94;6128045;23;20029;-87
2022/07/21 03:23:03;;;;;;;11.85;8.60;;;17.40;99.90;;;-144.05;94.12;125687.94;6126848;23;20309;-88
2022/07/21 03:25:30;;;;;;;10.80;8.88;;;17.40;99.90;;;-144.05;94.85;125687.94;6128125;23;20290;-87
2022/07/21 03:27:57;;;;;;;13.95;9.07;;;17.40;99.90;;;-144.05;94.99;125687.94;6126171;23;20117;-87
2022/07/21 03:30:26;;;;;;;11.38;9.32;;;17.40;99.90;;;-144.05;95.33;125687.94;6127232;23;20010;-87
2022/07/21 03:32:52;;;;;;;12.48;9.43;;;17.40;99.90;;;-144.05;95.89;125687.94;6129031;23;20005;-88
2022/07/21 03:35:19;;;;;;;13.98;9.43;;;17.30;99.90;;;-144.05;96.13;125687.94;6127440;23;20066;-87
2022/07/21 03:38:06;;;;;;;12.02;9.35;;;17.40;99.90;;;-144.05;96.06;125687.94;6129410;23;20437;-91
2022/07/21 03:40:36;;;;;;;11.07;9.35;;;17.40;99.90;;;-144.05;96.67;125687.94;6129981;23;20002;-87
2022/07/21 03:43:06;;;;;;;12.50;10.18;;;17.40;99.90;;;-144.05;96.42;125687.94;6103752;23;20156;-87
2022/07/21 03:45:36;;;;;;;13.73;9.50;;;17.40;99.90;;;-144.05;96.11;125687.94;6104032;23;20491;-91
2022/07/21 03:48:06;;;;;;;12.32;9.20;;;17.40;99.90;;;-144.05;96.29;125687.94;6128686;23;20190;-88
2022/07/21 03:50:36;;;;;;;9.43;8.30;;;17.40;99.90;;;-144.05;96.03;125687.94;6129951;23;20005;-89
2022/07/21 03:53:03;;;;;;;10.73;8.38;;;17.30;99.90;;;-144.05;96.17;125687.94;6129281;23;20098;-89
2022/07/21 03:55:30;;;;;;;13.70;8.63;;;17.40;99.90;;;-144.05;96.03;125687.94;6129054;23;20124;-90
2022/07/21 03:58:02;;;;;;;15.93;9.82;;;17.30;99.90;;;-144.05;95.86;125687.94;6128299;23;20010;-89
2022/07/21 16:01:28;;;;;;;7.13;6.05;;;19.20;99.90;;;-144.05;83.45;125687.94;6128105;23;20025;-86
2022/07/21 16:03:54;;;;;;;8.35;5.93;;;19.30;99.90;;;-144.05;82.99;125687.94;6102743;23;20474;-87
2022/07/21 16:06:29;;;;;;;8.50;6.38;;;19.30;99.90;;;-144.05;82.88;125687.94;6103382;23;20010;-87
2022/07/21 16:08:55;;;;;;;11.07;6.28;;;19.40;99.90;;;-144.05;82.48;125687.94;6101503;23;20017;-89
2022/07/21 16:11:21;;;;;;;6.07;5.50;;;19.40;99.90;;;-144.05;81.91;125687.94;6126858;23;20120;-89
2022/07/21 16:13:47;;;;;;;8.82;7.22;;;19.30;99.90;;;-144.05;82.68;125687.94;6125754;23;20010;-88
2022/07/21 16:16:19;;;;;;;9.15;6.85;;;19.20;99.90;;;-144.05;83.35;125687.94;6126944;23;20002;-87
2022/07/21 16:18:45;;;;;;;7.47;6.68;;;19.00;99.90;;;-144.05;84.22;125687.94;6125286;23;20448;-86
2022/07/21 16:21:11;;;;;;;7.72;6.53;;;18.90;99.90;;;-144.05;85.14;125687.94;6102569;23;20008;-87
2022/07/21 16:23:40;;;;;;;7.68;6.80;;;18.90;99.90;;;-144.05;84.55;125687.94;6120147;23;20010;-89
2022/07/21 16:26:06;;;;;;;8.23;6.38;;;18.70;99.90;;;-144.05;85.22;125687.94;6147396;23;20014;-88
2022/07/21 16:28:32;;;;;;;6.68;5.43;;;18.60;99.90;;;-144.05;85.48;125687.94;6129903;23;20073;-88
2022/07/21 16:30:59;;;;;;;9.18;6.35;;;18.60;99.90;;;-144.05;85.73;125687.94;6127351;23;20436;-89
2022/07/21 16:33:26;;;;;;;7.75;5.43;;;18.60;99.90;;;-144.05;86.04;125687.94;6103544;23;20110;-87
2022/07/21 16:35:52;;;;;;;5.38;4.88;;;18.60;99.90;;;-144.05;85.85;125687.94;6128119;23;20010;-89
2022/07/21 16:38:18;;;;;;;6.25;5.55;;;18.60;99.90;;;-144.05;85.73;125687.94;6127799;23;20028;-88
2022/07/21 16:40:44;;;;;;;7.32;6.13;;;18.60;99.90;;;-144.05;86.69;125687.94;6103851;23;20006;-89
2022/07/21 16:43:10;;;;;;;6.47;5.88;;;18.60;99.90;;;-144.05;86.62;125687.94;6127991;23;20069;-89
2022/07/21 16:45:36;;;;;;;8.23;7.22;;;18.60;99.90;;;-144.05;86.82;125687.94;6129148;23;20105;-87
2022/07/21 16:48:04;;;;;;;8.52;7.47;;;18.50;99.90;;;-144.05;86.99;125687.94;6131420;23;20309;-89
2022/07/21 16:50:30;;;;;;;9.48;7.95;;;18.60;99.90;;;-144.05;87.26;125687.94;6105397;23;20321;-88
2022/07/21 16:52:56;;;;;;;11.32;10.23;;;18.50;99.90;;;-144.05;87.66;125687.94;6128276;23;20029;-88
2022/07/21 16:55:22;;;;;;;11.55;10.35;;;18.50;99.90;;;-144.05;87.71;125687.94;6105799;23;20384;-87
2022/07/21 16:57:48;;;;;;;11.25;8.95;;;18.40;99.90;;;-144.05;88.00;125687.94;6106710;23;20379;-89
2022/07/21 17:00:16;;;;;;;12.70;9.15;;;18.40;99.90;;;-144.05;87.58;125687.94;6105591;23;20113;-88
2022/07/21 17:02:43;;;;;;;16.50;10.05;;;18.40;99.90;;;-144.05;87.77;125687.94;6129964;23;20463;-87
2022/07/21 17:05:10;;;;;;;11.65;9.30;;;18.30;99.90;;;-144.05;88.08;125687.94;6106721;23;20010;-87
2022/07/21 17:07:36;;;;;;;12.57;9.25;;;18.30;99.90;;;-144.05;88.33;125687.94;6129472;23;20006;-88
2022/07/21 17:10:02;;;;;;;11.65;8.05;;;18.30;99.90;;;-144.05;88.00;125687.94;6131920;23;20009;-86
2022/07/21 17:12:28;;;;;;;13.00;9.93;;;18.30;99.90;;;-144.05;88.69;125687.94;6131209;23;20005;-87
2022/07/21 17:14:54;;;;;;;10.35;9.05;;;18.30;99.90;;;-144.05;88.14;125687.94;6106698;23;20006;-87
2022/07/21 17:17:20;;;;;;;10.10;8.88;;;18.30;99.90;;;-144.05;87.95;125687.94;6130687;23;20017;-87
2022/07/21 17:19:46;;;;;;;11.45;10.15;;;18.30;99.90;;;-144.05;87.87;125687.94;6131420;23;20458;-86
2022/07/21 17:22:12;;;;;;;13.85;9.88;;;18.40;99.90;;;-144.05;87.80;125687.94;6105350;23;20006;-87
2022/07/21 17:24:38;;;;;;;10.75;9.25;;;18.40;99.90;;;-144.05;87.52;125687.94;6129472;23;20010;-88
2022/07/21 17:27:05;;;;;;;12.20;9.20;;;18.40;99.90;;;-144.05;87.68;125687.94;6104553;23;20384;-88
2022/07/21 17:29:31;;;;;;;10.77;9.40;;;18.40;99.90;;;-144.05;87.27;125687.94;6128977;23;20020;-87
2022/07/21 17:31:58;;;;;;;12.50;9.20;;;18.30;99.90;;;-144.05;87.78;125687.94;6130053;23;20408;-88
2022/07/21 17:34:24;;;;;;;10.45;8.68;;;18.30;99.90;;;-144.05;87.63;125687.94;6129337;23;20014;-88
2022/07/21 17:36:50;;;;;;;10.43;9.15;;;18.30;99.90;;;-144.05;88.34;125687.94;6103515;23;20006;-87
2022/07/21 17:39:16;;;;;;;10.95;8.88;;;18.20;99.90;;;-144.05;88.47;125687.94;6127449;23;20006;-87
2022/07/21 17:41:41;;;;;;;12.70;10.20;;;18.20;99.90;;;-144.05;88.45;125687.94;6104483;23;20010;-88
2022/07/21 17:44:07;;;;;;;10.52;9.38;;;18.20;99.90;;;-144.05;88.81;125687.94;6104825;23;20041;-88
2022/07/21 17:46:34;;;;;;;11.88;10.63;;;18.20;99.90;;;-144.05;89.04;125687.94;6103887;23;20096;-86
2022/07/21 17:49:03;;;;;;;16.10;12.55;;;18.10;99.90;;;-144.05;89.47;125687.94;6128297;23;20010;-86
2022/07/21 17:51:29;;;;;;;16.00;13.45;;;18.10;99.90;;;-144.05;89.88;125687.94;6103172;23;20009;-88
2022/07/21 17:53:55;;;;;;;18.05;14.93;;;18.10;99.90;;;-144.05;90.31;125687.94;6128128;23;20021;-88
2022/07/21 17:56:21;;;;;;;16.45;13.85;;;18.00;99.90;;;-144.05;90.25;125687.94;6128909;23;20085;-88
2022/07/21 17:58:47;;;;;;;18.27;14.82;;;18.00;99.90;;;-144.05;90.95;125687.94;6127405;23;20006;-89
2022/07/21 18:01:21;;;;;;;16.70;14.65;;;18.00;99.90;;;-144.05;91.63;125687.94;6103327;23;20340;-88
2022/07/21 18:03:53;;;;;;;14.30;12.40;;;17.90;99.90;;;-144.05;91.69;125687.94;6102960;23;20041;-87
2022/07/21 18:06:24;;;;;;;13.68;12.25;;;17.90;99.90;;;-144.05;91.81;125687.94;6103828;23;20021;-86
2022/07/21 18:08:51;;;;;;;15.18;12.60;;;17.90;99.90;;;-144.05;92.13;125687.94;6127400;23;20014;-87
2022/07/21 18:11:30;;;;;;;14.18;12.68;;;17.90;99.90;;;-144.05;92.26;125687.94;6127325;23;20038;-87
2022/07/21 18:13:55;;;;;;;13.32;12.02;;;17.80;99.90;;;-144.05;92.52;125687.94;6102287;23;20089;-88
2022/07/21 18:16:21;;;;;;;13.70;11.68;;;17.80;99.90;;;-144.05;92.23;125687.94;6126427;23;20006;-87
2022/07/21 18:18:48;;;;;;;13.50;11.95;;;17.80;99.90;;;-144.05;92.66;125687.94;6102219;23;20010;-88
2022/07/21 18:21:16;;;;;;;16.58;13.20;;;17.80;99.90;;;-144.05;92.92;125687.94;6126239;23;20081;-88
2022/07/21 18:23:42;;;;;;;14.65;10.88;;;17.80;99.90;;;-144.05;92.87;125687.94;6126431;23;20086;-89
2022/07/21 18:26:09;;;;;;;14.45;12.52;;;17.80;99.90;;;-144.05;93.22;125687.94;6102525;23;20037;-85
2022/07/21 18:28:35;;;;;;;15.30;12.88;;;17.80;99.90;;;-144.05;93.38;125687.94;6102428;23;20388;-87
2022/07/21 18:31:08;;;;;;;15.07;13.48;;;17.80;99.90;;;-144.05;93.45;125687.94;6103583;23;20029;-88
2022/07/21 18:33:37;;;;;;;12.98;11.65;;;17.80;99.90;;;-144.05;93.53;125687.94;6107540;23;20081;-89
2022/07/21 18:36:26;;;;;;;13.50;12.10;;;17.80;99.90;;;-144.05;93.25;125687.94;6104898;23;20014;-91
2022/07/21 18:38:53;;;;;;;14.30;12.88;;;17.70;99.90;;;-144.05;93.84;125687.94;6129923;23;20455;-91
2022/07/21 18:41:36;;;;;;;14.38;12.88;;;17.70;99.90;;;-144.05;94.09;125687.94;6107692;23;20009;-88
2022/07/21 18:44:06;;;;;;;12.57;11.35;;;17.70;99.90;;;-144.05;94.08;125687.94;6109199;23;20044;-87
2022/07/21 18:46:32;;;;;;;14.23;11.55;;;17.60;99.90;;;-144.05;93.86;125687.94;6105912;23;20052;-87
2022/07/21 18:49:04;;;;;;;12.73;11.32;;;17.60;99.90;;;-144.05;94.06;125687.94;6130455;23;20037;-88
2022/07/21 18:51:30;;;;;;;12.82;10.82;;;17.60;99.90;;;-144.05;93.80;125687.94;6129139;23;20036;-87
2022/07/21 18:53:59;;;;;;;13.18;10.80;;;17.60;99.90;;;-144.05;93.60;125687.94;6128390;23;20014;-88
2022/07/21 18:56:29;;;;;;;15.52;12.18;;;17.60;99.90;;;-144.05;93.99;125687.94;6102601;23;20014;-87
2022/07/21 18:58:55;;;;;;;12.90;11.45;;;17.60;99.90;;;-144.05;94.07;125687.94;6103015;23;20336;-90
2022/07/21 19:01:26;;;;;;;14.88;12.88;;;17.60;99.90;;;-144.05;94.18;125687.94;6103580;23;20404;-88
2022/07/21 19:03:52;;;;;;;13.70;12.30;;;17.60;99.90;;;-144.05;93.98;125687.94;6129413;23;20034;-88
2022/07/21 19:06:19;;;;;;;15.07;13.30;;;17.60;99.90;;;-144.05;94.06;125687.94;6102954;23;20073;-86
2022/07/21 19:08:48;;;;;;;15.60;13.23;;;17.60;99.90;;;-144.05;94.02;125687.94;6127205;23;20010;-88
2022/07/21 19:11:14;;;;;;;17.25;14.52;;;17.60;99.90;;;-144.05;94.44;125687.94;6127894;23;20038;-88
2022/07/21 19:13:41;;;;;;;17.65;13.70;;;17.50;99.90;;;-144.05;94.33;125687.94;6127454;23;20017;-88
2022/07/21 19:16:07;;;;;;;14.75;13.13;;;17.40;99.90;;;-144.05;94.01;125687.94;6127942;23;20006;-87
2022/07/21 19:18:33;;;;;;;15.05;13.25;;;17.50;99.90;;;-144.05;94.34;125687.94;6102741;23;20010;-86
2022/07/21 19:21:05;;;;;;;14.38;12.80;;;17.50;99.90;;;-144.05;94.06;125687.94;6102985;23;20405;-86
2022/07/21 19:23:40;;;;;;;14.27;12.20;;;17.50;99.90;;;-144.05;94.00;125687.94;6128077;23;20014;-89
2022/07/21 19:26:06;;;;;;;15.63;12.93;;;17.50;99.90;;;-144.05;94.38;125687.94;6102173;23;20018;-87
2022/07/21 19:28:34;;;;;;;13.05;11.70;;;17.50;99.90;;;-144.05;94.33;125687.94;6128129;23;20120;-87
2022/07/21 19:31:15;;;;;;;13.00;11.70;;;17.50;99.90;;;-144.05;94.46;125687.94;6103604;23;20014;-88
2022/07/21 19:33:59;;;;;;;13.38;11.98;;;17.40;99.90;;;-144.05;94.49;125687.94;6104447;23;20010;-88
2022/07/21 19:36:43;;;;;;;14.55;13.00;;;17.50;99.90;;;-144.05;94.16;125687.94;6104119;23;20009;-86
2022/07/21 19:40:01;;;;;;;18.45;13.60;;;17.50;99.90;;;-144.05;94.85;125687.94;6127624;23;20005;-87
2022/07/21 19:43:53;;;;;;;;;;;;;;;;;;;;;
2022/07/21 19:47:30;;;;;;;15.88;13.90;;;17.50;99.90;;;-144.05;94.60;125687.94;6060261;23;20085;-88
2022/07/21 19:51:20;;;;;;;17.58;14.95;;;17.40;99.90;;;-144.05;94.89;125687.94;6119551;23;20034;-88
2022/07/21 19:58:19;;;;;;;21.33;17.27;;;17.50;99.90;;;-144.05;94.79;125687.94;6096207;23;20053;-86
2022/07/21 20:01:19;;;;;;;23.55;16.80;;;17.50;99.90;;;-144.05;95.14;125687.94;6113070;23;20474;-87
2022/07/21 20:04:21;;;;;;;26.02;18.30;;;17.50;99.90;;;-144.05;95.20;125687.94;6089164;23;20352;-86
2022/07/21 20:07:06;;;;;;;29.50;20.85;;;17.40;99.90;;;-144.05;95.14;125687.94;6097547;23;20014;-87
2022/07/21 20:09:35;;;;;;;30.73;20.15;;;17.50;99.90;;;-144.05;95.84;125687.94;6102516;23;20296;-88
2022/07/21 20:16:05;;;;;;;27.38;20.17;;;17.50;99.90;;;-144.05;95.45;125687.94;5940722;24;20138;-88
2022/07/21 20:18:58;;;;;;;28.33;19.45;;;17.40;99.90;;;-144.05;95.73;125687.94;5962445;24;20033;-88
2022/07/21 20:21:25;;;;;;;24.33;19.65;;;17.40;99.90;;;-144.05;95.88;125687.94;5978804;24;20019;-89
2022/07/21 20:27:37;;;;;;;26.08;18.88;;;17.40;99.90;;;-144.05;95.70;125687.94;5923396;24;20020;-88
2022/07/21 20:30:05;;;;;;;26.27;18.08;;;17.40;99.90;;;-144.05;95.96;125687.94;5983216;24;20046;-87
2022/07/21 20:32:31;;;;;;;24.30;17.98;;;17.40;99.90;;;-144.05;96.27;125687.94;6038987;23;20025;-86
2022/07/21 20:34:57;;;;;;;23.23;18.70;;;17.40;99.90;;;-144.05;95.82;125687.94;6122471;23;20006;-86
2022/07/21 20:37:23;;;;;;;25.02;18.35;;;17.40;99.90;;;-144.05;96.32;125687.94;6123165;23;20093;-85
2022/07/21 20:39:49;;;;;;;23.05;16.77;;;17.40;99.90;;;-144.05;96.19;125687.94;6119155;23;20093;-86
2022/07/21 20:42:15;;;;;;;23.08;17.85;;;17.40;99.90;;;-144.05;96.44;125687.94;6134357;23;20017;-86
2022/07/21 20:44:41;;;;;;;24.38;18.50;;;17.40;99.90;;;-144.05;96.63;125687.94;6147062;23;20026;-88
2022/07/21 20:47:07;;;;;;;26.50;18.98;;;17.30;99.90;;;-144.05;96.46;125687.94;6147482;23;20101;-87
2022/07/21 20:49:33;;;;;;;22.42;17.23;;;17.30;99.90;;;-144.05;96.59;125687.94;6123661;23;20021;-87
2022/07/21 20:51:59;;;;;;;25.85;18.50;;;17.30;99.90;;;-144.05;96.74;125687.94;6149179;23;20006;-87
2022/07/21 20:54:25;;;;;;;24.83;18.50;;;17.30;99.90;;;-144.05;96.50;125687.94;6147136;23;20086;-90
2022/07/21 20:56:56;;;;;;;20.27;16.02;;;17.30;99.90;;;-144.05;96.52;125687.94;6119652;23;20069;-89
2022/07/21 20:59:28;;;;;;;18.17;15.07;;;17.30;99.90;;;-144.05;96.73;125687.94;6143725;23;20036;-90
2022/07/21 21:01:54;;;;;;;18.73;16.60;;;17.30;99.90;;;-144.05;96.54;125687.94;6117830;23;20014;-87
2022/07/21 21:04:20;;;;;;;19.17;15.00;;;17.30;99.90;;;-144.05;96.29;125687.94;6116605;23;20017;-91
2022/07/21 21:06:46;;;;;;;19.38;14.98;;;17.30;99.90;;;-144.05;95.99;125687.94;6139741;23;20139;-91
2022/07/21 21:09:18;;;;;;;18.13;15.30;;;17.30;99.90;;;-144.05;95.95;125687.94;6112837;23;20010;-89
2022/07/21 21:11:44;;;;;;;17.67;15.52;;;17.30;99.90;;;-144.05;96.07;125687.94;6136811;23;20010;-89
2022/07/21 21:14:10;;;;;;;19.63;16.23;;;17.30;99.90;;;-144.05;96.59;125687.94;6110351;23;20073;-89
2022/07/21 21:16:43;;;;;;;16.65;14.85;;;17.30;99.90;;;-144.05;96.28;125687.94;6135977;23;20492;-89
2022/07/21 21:19:37;;;;;;;18.23;16.27;;;17.30;99.90;;;-144.05;96.44;125687.94;6109851;23;20013;-90
2022/07/21 21:22:03;;;;;;;18.13;15.43;;;17.30;99.90;;;-144.05;96.19;125687.94;6111621;23;20028;-91
2022/07/21 21:24:32;;;;;;;21.08;16.70;;;17.20;99.90;;;-144.05;96.42;125687.94;6109957;23;20010;-90
2022/07/21 21:27:06;;;;;;;19.60;15.60;;;17.20;99.90;;;-144.05;96.22;125687.94;6135047;23;20010;-87
2022/07/21 21:29:59;;;;;;;18.55;16.63;;;17.20;99.90;;;-144.05;96.03;125687.94;6110171;23;20010;-91
2022/07/21 21:32:29;;;;;;;19.05;17.08;;;17.20;99.90;;;-144.05;96.19;125687.94;6137363;23;20225;-89
2022/07/21 21:34:55;;;;;;;20.48;17.58;;;17.20;99.90;;;-144.05;96.34;125687.94;6111421;23;20002;-89
2022/07/21 21:37:21;;;;;;;21.77;17.67;;;17.20;99.90;;;-144.05;96.85;125687.94;6111307;23;20040;-90
2022/07/21 21:39:47;;;;;;;19.90;17.75;;;17.20;99.90;;;-144.05;96.72;125687.94;6111279;23;20391;-90
2022/07/21 21:42:13;;;;;;;24.00;18.60;;;17.20;99.90;;;-144.05;96.54;125687.94;6136045;23;20149;-89
2022/07/21 21:44:39;;;;;;;19.00;16.98;;;17.10;99.90;;;-144.05;96.19;125687.94;6109677;23;20014;-89
2022/07/21 21:47:05;;;;;;;21.17;17.02;;;17.10;99.90;;;-144.05;96.22;125687.94;6109546;23;20016;-88
2022/07/21 21:49:31;;;;;;;20.13;16.88;;;17.10;99.90;;;-144.05;96.43;125687.94;6135707;23;20377;-89
2022/07/21 21:51:57;;;;;;;20.45;17.92;;;17.10;99.90;;;-144.05;96.28;125687.94;6109498;23;20017;-89
2022/07/21 21:54:23;;;;;;;20.95;17.85;;;17.10;99.90;;;-144.05;96.91;125687.94;6109844;23;20014;-90
2022/07/21 21:56:49;;;;;;;21.77;17.05;;;17.00;99.90;;;-144.05;97.00;125687.94;6110714;23;20017;-89
2022/07/21 21:59:15;;;;;;;19.23;17.23;;;17.00;99.90;;;-144.05;96.57;125687.94;6101575;23;20027;-85
2022/07/21 22:01:41;;;;;;;19.33;17.27;;;17.00;99.90;;;-144.05;96.45;125687.94;6106574;23;20355;-87
2022/07/21 22:04:06;;;;;;;20.45;18.33;;;17.00;99.90;;;-144.05;96.52;125687.94;6109157;23;20105;-86
2022/07/21 22:06:32;;;;;;;17.85;15.98;;;17.00;99.90;;;-144.05;96.32;125687.94;6133606;23;20006;-86
2022/07/21 22:08:58;;;;;;;17.67;15.25;;;17.00;99.90;;;-144.05;96.16;125687.94;6107422;23;20053;-88
2022/07/21 22:11:24;;;;;;;16.60;14.55;;;16.90;99.90;;;-144.05;96.53;125687.94;6107958;23;20072;-88
2022/07/21 22:13:51;;;;;;;15.30;13.63;;;16.90;99.90;;;-144.05;96.32;125687.94;6106483;23;20005;-87
2022/07/21 22:16:17;;;;;;;18.02;13.68;;;16.90;99.90;;;-144.05;96.06;125687.94;6132386;23;20368;-87
2022/07/21 22:18:49;;;;;;;15.80;14.18;;;17.00;99.90;;;-144.05;95.89;125687.94;6135986;23;20014;-86